Weather at Panshanger Aerodrome [CLOSED]

Public forecast

Using degrees Celsius for public forecast. Weather courtesy of forecast.io.

Closest aviation weather report (METAR) to Panshanger Aerodrome

Closest report is London Luton Airport, 8.9 nm (16.5 km) WNW. Retrieved 2021/08/03 18:50 UTC (19 minutes ago):

EGGW 031850Z AUTO 15005KT 9999 NCD 17/11 Q1013

Closest aviation forecast (TAF) to Panshanger Aerodrome

Closest forecast is London Luton Airport, 8.9 nm (16.5 km) WNW. Retrieved 2021/08/03 18:00 UTC (1 hour ago):

TAF EGGW 031656Z 0318/0418 13004KT 9999 SCT030 PROB30 TEMPO 0318/0320 7000 SHRA PROB30 0402/0407 6000